Time;durP1;ratioP1;P1;durP2;ratioP2;P2;SDS_P1;SDS_P2;PMS_P1;PMS_P2;Temp;Humidity;BMP_temperature;BMP_pressure;BME280_temperature;BME280_humidity;BME280_pressure;Samples;Min_cycle;Max_cycle;Signal;HPM_P1;HPM_P2
2022/01/04 07:58:38;;;;;;;15.88;12.45;;;;;;;7.58;96.69;99507.53;5280002;28;20743;-75
2022/01/04 08:01:10;;;;;;;17.42;11.65;;;;;;;7.56;96.85;99507.81;5264906;28;20042;-76
2022/01/04 08:03:41;;;;;;;17.55;13.00;;;;;;;7.57;97.04;99511.41;5253271;28;20036;-75
2022/01/04 08:06:12;;;;;;;15.45;13.00;;;;;;;7.63;96.96;99499.16;5259905;28;20106;-76
2022/01/04 08:08:43;;;;;;;15.18;12.85;;;;;;;7.68;96.68;99501.81;5258331;28;20118;-76
2022/01/04 08:11:15;;;;;;;15.23;12.05;;;;;;;7.70;96.65;99502.34;5251318;28;20029;-76
2022/01/04 08:13:46;;;;;;;17.98;13.13;;;;;;;7.68;96.28;99492.75;5247671;28;20025;-77
2022/01/04 08:16:18;;;;;;;18.08;11.88;;;;;;;7.74;96.13;99497.84;5238555;28;20022;-77
2022/01/04 08:18:49;;;;;;;18.75;12.02;;;;;;;7.74;96.31;99505.31;5243775;28;20473;-76
2022/01/04 08:21:20;;;;;;;15.57;11.88;;;;;;;7.71;95.94;99503.16;5270139;28;20487;-76
2022/01/04 08:23:52;;;;;;;16.20;11.27;;;;;;;7.82;95.84;99510.13;5259336;28;20461;-76
2022/01/04 08:26:24;;;;;;;14.95;12.23;;;;;;;7.76;95.31;99512.16;5259255;28;20028;-79
2022/01/04 08:28:56;;;;;;;15.82;13.57;;;;;;;7.87;95.49;99509.22;5247308;28;20025;-79
2022/01/04 08:31:27;;;;;;;16.58;12.82;;;;;;;7.89;95.27;99504.22;5241052;28;20030;-80
2022/01/04 08:33:59;;;;;;;15.95;12.30;;;;;;;7.87;94.73;99501.75;5238384;28;20028;-76
2022/01/04 08:36:30;;;;;;;16.98;12.00;;;;;;;7.89;94.70;99501.47;5263606;28;20086;-78
2022/01/04 08:39:02;;;;;;;14.93;11.75;;;;;;;7.83;94.92;99503.50;5265148;28;20021;-78
2022/01/04 08:41:34;;;;;;;16.80;12.35;;;;;;;7.90;94.70;99508.59;5245234;28;20048;-78
2022/01/04 08:44:05;;;;;;;14.10;11.45;;;;;;;7.92;94.21;99533.97;5238215;28;20030;-78
2022/01/04 08:46:36;;;;;;;15.52;11.98;;;;;;;7.92;94.21;99540.31;5238584;28;20030;-78
2022/01/04 08:49:08;;;;;;;16.17;12.40;;;;;;;7.98;94.27;99538.28;5237206;28;20457;-79
2022/01/04 08:51:39;;;;;;;17.08;13.02;;;;;;;7.93;93.64;99541.97;5238399;28;20041;-78
2022/01/04 08:54:14;;;;;;;20.23;13.15;;;;;;;7.81;94.42;99541.63;5242071;28;20026;-79
2022/01/04 08:56:45;;;;;;;16.33;12.18;;;;;;;7.93;94.53;99547.47;5254083;28;20041;-78
2022/01/04 08:59:16;;;;;;;17.40;12.15;;;;;;;7.87;94.67;99547.84;5251569;28;20393;-78
2022/01/04 09:01:48;;;;;;;19.42;12.52;;;;;;;7.91;94.22;99543.38;5253637;28;20059;-78
2022/01/04 09:04:21;;;;;;;17.13;13.10;;;;;;;7.86;94.74;99541.53;5237285;28;20029;-77
2022/01/04 09:06:53;;;;;;;17.25;12.48;;;;;;;7.83;94.46;99534.66;5251539;28;20029;-75
2022/01/04 09:09:24;;;;;;;16.02;13.38;;;;;;;7.88;94.62;99516.41;5248210;28;20029;-74
2022/01/04 09:11:55;;;;;;;15.27;12.18;;;;;;;7.90;94.91;99516.88;5243533;28;20021;-77
2022/01/04 09:14:41;;;;;;;15.48;13.05;;;;;;;7.90;94.52;99519.66;5244239;28;20033;-72
2022/01/04 09:20:12;;;;;;;17.55;13.75;;;;;;;7.94;94.38;99504.13;5225403;28;20042;-76
2022/01/04 09:22:43;;;;;;;17.00;13.57;;;;;;;7.94;94.72;99504.13;5224009;28;20359;-75
2022/01/04 09:25:14;;;;;;;19.17;13.63;;;;;;;7.91;94.54;99515.78;5227488;28;20070;-75
2022/01/04 09:27:46;;;;;;;15.45;12.93;;;;;;;7.93;94.38;99530.91;5244131;28;20540;-75
2022/01/04 09:30:17;;;;;;;19.58;14.13;;;;;;;7.97;94.41;99542.16;5243921;28;20029;-76
2022/01/04 09:32:49;;;;;;;19.83;14.75;;;;;;;8.00;94.29;99553.44;5243039;28;20030;-75
2022/01/04 09:35:20;;;;;;;19.67;14.00;;;;;;;8.02;94.25;99550.34;5242180;28;20410;-75
2022/01/04 09:37:51;;;;;;;20.00;16.75;;;;;;;7.94;94.55;99548.28;5226504;28;20469;-74
2022/01/04 09:40:23;;;;;;;16.52;14.13;;;;;;;7.87;94.67;99537.63;5224631;28;20079;-75
2022/01/04 09:42:56;;;;;;;18.10;14.95;;;;;;;7.95;94.75;99538.88;5225488;28;20026;-75
2022/01/04 09:45:27;;;;;;;19.80;14.77;;;;;;;7.98;94.15;99538.28;5223591;28;20026;-74
2022/01/04 09:47:59;;;;;;;18.90;14.52;;;;;;;8.00;94.16;99536.03;5243676;28;20170;-74
2022/01/04 09:50:33;;;;;;;19.52;14.68;;;;;;;8.03;94.37;99540.97;5243775;28;20045;-75
2022/01/04 09:53:09;;;;;;;19.10;15.27;;;;;;;8.06;94.24;99540.34;5236828;28;20049;-73
2022/01/04 09:55:42;;;;;;;;;;;;;;;8.13;93.79;99546.28;5223163;28;20034;-73
2022/01/04 09:58:13;;;;;;;21.15;16.27;;;;;;;8.06;94.07;99543.09;5222345;28;19921;-75
2022/01/04 10:00:47;;;;;;;20.92;16.85;;;;;;;8.11;94.09;99528.38;5222892;28;20032;-75
2022/01/04 10:03:18;;;;;;;22.92;17.08;;;;;;;8.05;93.83;99533.16;5230936;28;20024;-76
2022/01/04 10:06:00;;;;;;;21.90;16.70;;;;;;;8.09;94.39;99534.22;5243460;28;20025;-73
2022/01/04 10:08:32;;;;;;;26.17;17.92;;;;;;;8.15;94.00;99535.72;5241192;28;20025;-74
2022/01/04 10:11:10;;;;;;;22.05;16.25;;;;;;;8.16;93.39;99526.34;5245965;28;20078;-75
2022/01/04 10:13:42;;;;;;;23.02;17.77;;;;;;;8.20;93.31;99521.81;5229661;28;20060;-74
2022/01/04 10:16:16;;;;;;;21.60;17.50;;;;;;;8.19;93.49;99511.91;5222028;28;20057;-75
2022/01/04 10:18:48;;;;;;;28.88;17.73;;;;;;;8.18;93.85;99509.44;5225867;28;20022;-74
2022/01/04 10:21:19;;;;;;;22.38;16.83;;;;;;;8.25;93.14;99504.34;5240611;28;20104;-75
2022/01/04 10:23:55;;;;;;;26.77;18.30;;;;;;;8.27;92.75;99502.09;5243145;28;20032;-75
2022/01/04 10:26:35;;;;;;;23.35;18.75;;;;;;;8.28;92.56;99498.19;5241434;28;20444;-74
2022/01/04 10:29:20;;;;;;;21.35;17.52;;;;;;;8.31;93.26;99505.06;5221313;28;20429;-76
2022/01/04 10:31:52;;;;;;;24.58;17.52;;;;;;;8.30;93.10;99506.19;5222437;28;20026;-76
2022/01/04 10:34:23;;;;;;;24.38;18.73;;;;;;;8.25;92.95;99505.16;5221477;28;20028;-75
2022/01/04 10:36:54;;;;;;;21.75;17.23;;;;;;;8.22;93.09;99504.97;5227621;28;20029;-75
2022/01/04 10:39:26;;;;;;;25.02;18.85;;;;;;;8.18;93.26;99499.25;5243010;28;20105;-77
2022/01/04 10:42:06;;;;;;;24.17;17.42;;;;;;;8.27;93.23;99497.38;5241466;28;20112;-76
2022/01/04 10:44:39;;;;;;;26.58;18.88;;;;;;;8.21;92.76;99500.56;5237366;28;20044;-75
2022/01/04 10:47:10;;;;;;;26.35;20.42;;;;;;;8.23;93.46;99499.13;5242870;28;20477;-74
2022/01/04 10:49:42;;;;;;;26.95;19.77;;;;;;;8.27;93.60;99508.44;5239872;28;20032;-76
2022/01/04 10:52:18;;;;;;;28.88;20.08;;;;;;;8.27;93.77;99502.09;5240833;28;20031;-77
2022/01/04 10:55:12;;;;;;;24.73;19.35;;;;;;;8.33;93.08;99500.84;5241107;28;20086;-81
2022/01/04 10:57:43;;;;;;;26.92;19.42;;;;;;;8.42;94.97;99501.00;5222232;28;20069;-81
2022/01/04 11:00:17;;;;;;;30.73;19.02;;;;;;;8.45;93.69;99508.66;5220586;28;20072;-84
2022/01/04 11:02:48;;;;;;;26.25;19.50;;;;;;;8.42;93.17;99498.25;5232821;28;20026;-78
2022/01/04 11:05:21;;;;;;;26.05;19.50;;;;;;;8.40;92.59;99492.19;5219640;28;20030;-79
2022/01/04 11:08:04;;;;;;;28.20;19.95;;;;;;;8.40;93.11;99489.44;5237230;28;20052;-69
2022/01/04 11:10:36;;;;;;;25.13;19.35;;;;;;;8.47;92.50;99487.09;5231588;28;20029;-73
2022/01/04 11:13:08;;;;;;;27.85;19.73;;;;;;;8.49;92.39;99488.41;5240712;28;20029;-75
2022/01/04 11:15:39;;;;;;;29.10;20.42;;;;;;;8.49;91.78;99482.06;5241655;28;20457;-76
2022/01/04 11:18:11;;;;;;;25.75;19.27;;;;;;;8.48;91.90;99477.66;5234575;28;20033;-78
2022/01/04 11:20:44;;;;;;;24.90;20.27;;;;;;;8.46;92.70;99477.13;5221153;28;20034;-80
2022/01/04 11:23:15;;;;;;;29.23;20.20;;;;;;;8.52;92.26;99484.22;5220693;28;20022;-77
2022/01/04 11:25:48;;;;;;;28.30;21.40;;;;;;;8.52;92.35;99486.97;5239848;28;20032;-74
2022/01/04 11:28:21;;;;;;;27.27;19.38;;;;;;;8.46;92.46;99500.09;5241366;28;20520;-73
2022/01/04 11:31:31;;;;;;;28.70;19.27;;;;;;;8.53;92.73;99494.13;5240376;28;20053;-73
2022/01/04 11:34:06;;;;;;;25.00;19.13;;;;;;;8.48;92.73;99497.00;5231023;28;20477;-81
2022/01/04 11:36:49;;;;;;;29.40;21.05;;;;;;;8.50;92.81;99508.56;5222753;28;20060;-80
2022/01/04 11:39:36;;;;;;;24.23;19.33;;;;;;;8.49;92.68;99504.19;5221262;28;20088;-83
2022/01/04 11:42:11;;;;;;;28.95;20.23;;;;;;;8.53;92.48;99516.22;5239306;28;20465;-81
2022/01/04 11:44:47;;;;;;;30.80;20.27;;;;;;;8.43;93.52;99539.34;5230648;28;20033;-78
2022/01/04 11:47:34;;;;;;;21.70;13.90;;;;;;;7.93;90.25;99546.66;5239547;28;20407;-83
2022/01/04 11:50:15;;;;;;;5.78;3.60;;;;;;;7.24;88.17;99552.75;5239210;28;20025;-82
2022/01/04 11:52:53;;;;;;;12.45;11.10;;;;;;;7.12;88.20;99544.94;5227096;28;20440;-81
2022/01/04 11:55:29;;;;;;;55.38;43.13;;;;;;;7.11;90.23;99532.28;5232903;28;20428;-82
2022/01/04 11:58:08;;;;;;;4.95;2.75;;;;;;;7.01;90.47;99553.66;5262167;28;20444;-84
2022/01/04 12:00:45;;;;;;;3.35;2.53;;;;;;;6.91;92.15;99536.13;5243171;28;20462;-83
2022/01/04 12:03:20;;;;;;;5.30;3.63;;;;;;;7.00;93.04;99535.47;5229967;28;20026;-83
2022/01/04 12:05:54;;;;;;;4.32;3.05;;;;;;;7.03;92.34;99538.47;5242177;28;20037;-84
2022/01/04 12:08:33;;;;;;;5.20;3.70;;;;;;;7.16;92.86;99545.97;5240234;28;20397;-83
2022/01/04 12:11:19;;;;;;;5.95;3.83;;;;;;;7.05;93.25;99543.66;5223179;28;20025;-83
2022/01/04 12:13:53;;;;;;;27.58;12.85;;;;;;;7.37;95.16;99552.00;5223268;28;20442;-80
2022/01/04 12:16:35;;;;;;;7.88;5.75;;;;;;;7.44;94.16;99537.00;5220773;28;20034;-78
2022/01/04 12:19:15;;;;;;;7.43;6.65;;;;;;;7.35;92.78;99532.16;5227922;28;20076;-83
2022/01/04 12:21:48;;;;;;;6.90;6.20;;;;;;;7.43;93.27;99527.91;5232675;28;20034;-79
2022/01/04 12:24:24;;;;;;;7.78;5.85;;;;;;;7.62;93.33;99531.47;5219691;28;20033;-81
2022/01/04 12:27:11;;;;;;;9.52;7.28;;;;;;;7.82;93.87;99522.00;5220721;28;20500;-82
2022/01/04 12:29:42;;;;;;;12.18;8.60;;;;;;;7.86;93.50;99524.16;5220206;28;20033;-77
2022/01/04 12:32:20;;;;;;;11.30;9.38;;;;;;;7.90;93.72;99520.47;5232162;28;20037;-85
2022/01/04 12:35:00;;;;;;;11.80;10.18;;;;;;;7.84;93.25;99516.97;5235485;28;20029;-85
2022/01/04 12:37:35;;;;;;;14.13;11.27;;;;;;;7.94;94.12;99515.16;5243111;28;20128;-80
2022/01/04 12:40:07;;;;;;;11.40;10.02;;;;;;;8.05;94.04;99508.31;5241021;28;20485;-85
2022/01/04 12:42:42;;;;;;;13.07;10.00;;;;;;;8.11;94.25;99504.34;5237257;28;20044;-82
2022/01/04 12:45:13;;;;;;;11.60;10.45;;;;;;;8.18;93.60;99503.94;5243518;28;20022;-82
2022/01/04 12:47:49;;;;;;;11.70;10.30;;;;;;;8.19;93.68;99495.34;5245297;28;20423;-75
2022/01/04 12:50:24;;;;;;;12.35;9.98;;;;;;;8.24;94.24;99491.66;5246118;28;20025;-82
2022/01/04 12:52:55;;;;;;;15.05;10.40;;;;;;;8.25;94.39;99494.09;5245526;28;20021;-83
2022/01/04 12:55:27;;;;;;;13.80;10.77;;;;;;;8.25;94.13;99493.28;5245058;28;20387;-83
2022/01/04 12:57:58;;;;;;;12.45;10.82;;;;;;;8.19;94.51;99486.25;5244989;28;20520;-76
2022/01/04 13:00:30;;;;;;;13.75;11.70;;;;;;;8.17;94.34;99485.72;5250252;28;20029;-80
2022/01/04 13:03:01;;;;;;;10.90;9.80;;;;;;;8.09;94.13;99484.50;5233452;28;20377;-79
2022/01/04 13:05:32;;;;;;;10.73;9.63;;;;;;;8.13;94.62;99482.78;5238645;28;20076;-77
2022/01/04 13:08:05;;;;;;;10.02;9.05;;;;;;;8.14;93.28;99478.88;5253235;28;20396;-86
2022/01/04 13:10:37;;;;;;;9.02;7.80;;;;;;;8.10;92.87;99479.78;5263124;28;20022;-87
2022/01/04 13:13:08;;;;;;;8.15;6.70;;;;;;;8.16;92.78;99479.41;5268171;28;20096;-87
2022/01/04 13:15:42;;;;;;;8.07;6.13;;;;;;;8.23;92.34;99481.72;5268354;28;20112;-88
2022/01/04 13:18:25;;;;;;;9.90;8.13;;;;;;;8.27;92.47;99491.03;5249636;28;20029;-88
2022/01/04 13:21:05;;;;;;;7.75;6.43;;;;;;;8.17;91.98;99494.81;5244108;28;20025;-86
2022/01/04 13:23:40;;;;;;;9.15;6.75;;;;;;;8.28;92.32;99488.00;5249321;28;20025;-87
2022/01/04 13:26:11;;;;;;;7.93;6.87;;;;;;;8.25;92.21;99487.78;5266252;28;20392;-86
2022/01/04 13:28:43;;;;;;;8.73;6.35;;;;;;;8.16;91.96;99486.88;5263549;28;20025;-89
2022/01/04 13:31:20;;;;;;;7.50;6.45;;;;;;;8.26;92.29;99493.00;5235110;28;20026;-89
2022/01/04 13:33:54;;;;;;;6.82;6.13;;;;;;;8.30;92.31;99492.38;5247267;28;20196;-89
2022/01/04 13:36:26;;;;;;;9.77;6.32;;;;;;;8.33;92.41;99500.84;5246888;28;20023;-87
2022/01/04 13:38:58;;;;;;;8.95;6.97;;;;;;;8.34;92.60;99496.19;5245090;28;20055;-81
2022/01/04 13:41:39;;;;;;;7.50;6.22;;;;;;;8.41;93.22;99502.09;5243526;28;20126;-80
2022/01/04 13:44:11;;;;;;;8.43;5.75;;;;;;;8.30;91.65;99495.94;5243117;28;20028;-79
2022/01/04 13:46:42;;;;;;;6.25;5.00;;;;;;;8.43;92.22;99508.97;5226442;28;20026;-79
2022/01/04 13:49:14;;;;;;;10.18;6.90;;;;;;;8.24;90.95;99499.97;5222957;28;20026;-79
2022/01/04 13:51:45;;;;;;;6.15;5.40;;;;;;;8.23;91.62;99501.91;5223628;28;20021;-81
2022/01/04 13:54:18;;;;;;;5.50;4.97;;;;;;;8.28;92.56;99506.47;5242772;28;20018;-82
2022/01/04 13:56:50;;;;;;;7.05;5.47;;;;;;;8.25;92.52;99510.69;5242376;28;20073;-86
2022/01/04 13:59:22;;;;;;;7.38;6.10;;;;;;;8.32;93.00;99504.75;5245002;28;20030;-84
2022/01/04 14:01:54;;;;;;;7.55;5.40;;;;;;;8.42;92.51;99510.09;5250745;28;20017;-85
2022/01/04 14:04:25;;;;;;;6.03;5.38;;;;;;;8.42;92.59;99503.75;5239386;28;20029;-84
2022/01/04 14:07:02;;;;;;;7.22;5.72;;;;;;;8.48;92.65;99513.56;5248504;28;20361;-84
2022/01/04 14:09:43;;;;;;;8.73;6.18;;;;;;;8.31;93.36;99513.34;5232112;28;20037;-83
2022/01/04 14:12:16;;;;;;;10.13;6.78;;;;;;;8.15;94.35;99519.16;5243088;28;20473;-84
2022/01/04 14:14:51;;;;;;;9.10;5.10;;;;;;;8.01;94.50;99521.09;5241809;28;20385;-83
2022/01/04 14:17:30;;;;;;;17.40;12.27;;;;;;;7.92;92.88;99522.94;5263623;28;20536;-84
2022/01/04 14:20:09;;;;;;;12.52;8.02;;;;;;;7.93;92.88;99524.59;5242584;28;20021;-83
2022/01/04 14:22:41;;;;;;;7.32;4.13;;;;;;;7.91;92.15;99521.31;5243458;28;20025;-83
2022/01/04 14:25:15;;;;;;;6.82;3.42;;;;;;;7.97;92.24;99531.13;5240040;28;20024;-83
2022/01/04 14:27:51;;;;;;;5.72;3.13;;;;;;;7.93;91.97;99530.09;5262075;28;20376;-83
2022/01/04 14:30:27;;;;;;;8.55;4.20;;;;;;;7.94;91.16;99532.53;5246988;28;20057;-84
2022/01/04 14:33:03;;;;;;;6.80;3.80;;;;;;;7.88;90.66;99544.00;5250398;28;20407;-85
2022/01/04 14:35:35;;;;;;;5.97;3.97;;;;;;;7.89;91.73;99542.88;5239919;28;20034;-85
2022/01/04 14:38:07;;;;;;;8.88;5.45;;;;;;;7.85;90.91;99548.19;5254053;28;20028;-84
2022/01/04 14:40:39;;;;;;;8.50;5.82;;;;;;;7.87;90.70;99547.84;5244941;28;20195;-79
2022/01/04 14:43:10;;;;;;;7.57;4.65;;;;;;;7.89;90.99;99553.91;5230804;28;20029;-82
2022/01/04 14:45:42;;;;;;;8.95;4.50;;;;;;;7.83;90.81;99548.47;5242330;28;20029;-81
2022/01/04 14:48:15;;;;;;;7.38;4.90;;;;;;;7.87;91.75;99553.38;5241073;28;20025;-84
2022/01/04 14:50:47;;;;;;;8.02;4.07;;;;;;;7.68;91.31;99557.00;5242511;28;20029;-84
2022/01/04 14:53:21;;;;;;;7.05;5.43;;;;;;;7.74;91.43;99560.50;5243905;28;20087;-82
2022/01/04 14:55:52;;;;;;;8.13;4.75;;;;;;;7.73;90.83;99559.69;5227688;28;20025;-79
2022/01/04 14:58:23;;;;;;;9.88;5.35;;;;;;;7.89;92.76;99564.94;5232876;28;20107;-72
2022/01/04 15:00:54;;;;;;;18.98;7.15;;;;;;;7.72;91.11;99565.50;5237204;28;20480;-78
2022/01/04 15:03:26;;;;;;;12.95;5.00;;;;;;;7.88;91.45;99560.56;5231864;28;20040;-79
2022/01/04 15:05:57;;;;;;;7.45;4.53;;;;;;;7.85;91.39;99561.97;5236741;28;20484;-79
2022/01/04 15:08:28;;;;;;;6.53;4.63;;;;;;;7.92;90.83;99558.81;5224082;28;20061;-79
2022/01/04 15:11:00;;;;;;;6.97;4.82;;;;;;;7.96;91.13;99562.63;5239858;28;20075;-78
2022/01/04 15:13:31;;;;;;;7.88;4.78;;;;;;;8.01;91.08;99588.19;5240229;28;20025;-77
2022/01/04 15:16:05;;;;;;;10.00;5.20;;;;;;;8.00;90.87;99605.88;5240291;28;20083;-78
2022/01/04 15:18:36;;;;;;;12.38;5.53;;;;;;;7.89;90.72;99606.34;5241756;28;20480;-80
2022/01/04 15:21:08;;;;;;;9.68;4.85;;;;;;;7.81;90.83;99608.69;5241397;28;20029;-78
2022/01/04 15:23:40;;;;;;;7.28;4.97;;;;;;;7.90;91.14;99613.50;5239193;28;20091;-80
2022/01/04 15:26:11;;;;;;;7.30;5.35;;;;;;;7.86;91.17;99607.78;5231528;28;20389;-79
2022/01/04 15:28:43;;;;;;;7.45;5.25;;;;;;;7.86;91.58;99610.53;5236158;28;20040;-79
2022/01/04 15:31:14;;;;;;;7.72;5.15;;;;;;;7.75;90.17;99617.34;5240241;28;20560;-79
2022/01/04 15:33:46;;;;;;;9.35;5.47;;;;;;;7.75;90.15;99615.41;5236638;28;20025;-80
2022/01/04 15:36:17;;;;;;;8.43;5.80;;;;;;;7.87;90.41;99622.38;5238752;28;20028;-77
2022/01/04 15:38:49;;;;;;;16.17;13.30;;;;;;;7.78;90.00;99633.31;5229261;28;20026;-80
2022/01/04 15:41:20;;;;;;;11.10;8.75;;;;;;;7.66;89.18;99636.53;5232152;28;20113;-79
2022/01/04 15:43:52;;;;;;;8.65;5.82;;;;;;;7.61;89.26;99637.41;5236584;28;20466;-80
2022/01/04 15:46:25;;;;;;;8.77;4.57;;;;;;;7.53;88.60;99637.28;5221116;28;20026;-80
2022/01/04 15:48:56;;;;;;;7.00;5.13;;;;;;;7.43;89.08;99642.94;5220411;28;20042;-80
2022/01/04 15:51:28;;;;;;;12.63;5.60;;;;;;;7.54;89.69;99638.91;5220832;28;20038;-79
2022/01/04 15:53:59;;;;;;;7.55;4.90;;;;;;;7.50;88.67;99646.16;5235561;28;20034;-80
2022/01/04 15:56:32;;;;;;;7.68;4.88;;;;;;;7.34;87.96;99640.88;5229696;28;20042;-78
2022/01/04 15:59:04;;;;;;;7.80;5.05;;;;;;;7.33;88.44;99644.72;5234445;28;20079;-79
2022/01/04 16:01:36;;;;;;;6.22;4.97;;;;;;;7.32;88.41;99645.84;5232987;28;20026;-80
2022/01/04 16:04:07;;;;;;;57.45;50.60;;;;;;;7.27;89.08;99661.66;5256535;28;20384;-80
2022/01/04 16:06:39;;;;;;;31.90;27.05;;;;;;;7.30;89.92;99656.34;5258026;28;20083;-79
2022/01/04 16:09:10;;;;;;;9.40;7.80;;;;;;;7.33;90.11;99650.22;5244393;28;20338;-80
2022/01/04 16:11:41;;;;;;;8.10;5.60;;;;;;;7.45;90.60;99657.28;5241776;28;20025;-81
2022/01/04 16:14:12;;;;;;;6.80;6.10;;;;;;;7.51;89.81;99654.13;5241739;28;20546;-80
2022/01/04 16:17:00;;;;;;;9.80;5.95;;;;;;;7.52;88.80;99654.97;5240791;28;20029;-80
2022/01/04 16:22:21;;;;;;;8.30;6.68;;;;;;;7.64;89.45;99660.81;5245602;28;20045;-78
2022/01/04 16:24:56;;;;;;;7.30;5.15;;;;;;;7.53;88.67;99659.34;5231631;28;20026;-78
2022/01/04 16:27:31;;;;;;;5.05;3.95;;;;;;;7.41;87.86;99665.31;5223653;28;20539;-78
2022/01/04 16:30:05;;;;;;;5.90;3.95;;;;;;;7.38;87.85;99676.94;5224479;28;20054;-77
2022/01/04 16:32:37;;;;;;;6.70;4.63;;;;;;;7.36;88.48;99673.66;5224440;28;20022;-78
2022/01/04 16:35:09;;;;;;;12.32;7.18;;;;;;;7.49;88.24;99675.69;5238918;28;20028;-78
2022/01/04 16:37:41;;;;;;;9.02;5.47;;;;;;;7.47;87.75;99677.09;5244034;28;20037;-80
2022/01/04 16:40:15;;;;;;;4.70;4.20;;;;;;;7.38;87.94;99694.28;5243743;28;20467;-81
2022/01/04 16:42:46;;;;;;;7.07;5.05;;;;;;;7.36;86.85;99688.28;5244579;28;20028;-78
2022/01/04 16:45:18;;;;;;;4.53;3.50;;;;;;;7.49;86.88;99688.63;5242793;28;20029;-80
2022/01/04 16:47:51;;;;;;;6.00;4.32;;;;;;;7.38;85.94;99686.03;5236973;28;20049;-78
2022/01/04 16:50:22;;;;;;;5.30;3.55;;;;;;;7.34;85.83;99690.50;5228661;28;20029;-78
2022/01/04 16:52:54;;;;;;;4.75;3.40;;;;;;;7.38;85.76;99688.78;5257577;28;20025;-78
2022/01/04 16:55:26;;;;;;;4.82;3.25;;;;;;;7.28;86.14;99693.63;5249826;28;20548;-77
2022/01/04 16:57:57;;;;;;;4.30;2.95;;;;;;;7.30;85.77;99699.66;5231382;28;20137;-78
2022/01/04 17:00:29;;;;;;;5.82;3.05;;;;;;;7.25;86.42;99695.03;5241276;28;20055;-77
2022/01/04 17:03:00;;;;;;;5.00;3.72;;;;;;;7.06;87.01;99694.19;5261039;28;20108;-78
2022/01/04 17:05:32;;;;;;;5.75;4.00;;;;;;;7.20;87.96;99681.31;5246995;28;20036;-77
2022/01/04 17:08:05;;;;;;;4.60;3.92;;;;;;;7.14;87.22;99677.00;5257074;28;20018;-77
2022/01/04 17:10:48;;;;;;;7.03;4.25;;;;;;;7.18;87.70;99680.78;5244784;28;20030;-77
2022/01/04 17:16:09;;;;;;;6.93;4.13;;;;;;;7.36;86.52;99691.03;5233826;28;20120;-77
2022/01/04 17:18:41;;;;;;;21.00;14.88;;;;;;;7.32;86.24;99698.25;5242315;28;20793;-78
2022/01/04 17:21:15;;;;;;;9.55;7.10;;;;;;;7.32;85.36;99702.94;5223625;28;20097;-77
2022/01/04 17:23:46;;;;;;;6.15;3.78;;;;;;;7.10;86.02;99695.22;5226140;28;20472;-77
2022/01/04 17:26:20;;;;;;;7.07;3.40;;;;;;;7.00;86.41;99700.84;5240514;28;20029;-77
2022/01/04 17:28:51;;;;;;;9.77;4.60;;;;;;;6.99;86.75;99693.72;5242338;28;20025;-77
